sensor_id;sensor_type;location;lat;lon;timestamp;P1;durP1;ratioP1;P2;durP2;ratioP2
24631;SDS011;59977;48.782;9.190;2023-09-08T00:01:59;10.05;;;5.40;;
24631;SDS011;59977;48.782;9.190;2023-09-08T00:04:25;7.80;;;4.90;;
24631;SDS011;59977;48.782;9.190;2023-09-08T00:06:51;12.32;;;5.32;;
24631;SDS011;59977;48.782;9.190;2023-09-08T00:09:17;6.75;;;4.95;;
24631;SDS011;59977;48.782;9.190;2023-09-08T00:11:43;7.07;;;5.13;;
24631;SDS011;59977;48.782;9.190;2023-09-08T00:14:08;9.02;;;5.05;;
24631;SDS011;59977;48.782;9.190;2023-09-08T00:16:34;9.43;;;5.38;;
24631;SDS011;59977;48.782;9.190;2023-09-08T00:19:00;9.45;;;5.00;;
24631;SDS011;59977;48.782;9.190;2023-09-08T00:21:26;9.93;;;5.05;;
24631;SDS011;59977;48.782;9.190;2023-09-08T00:23:52;9.80;;;5.20;;
24631;SDS011;59977;48.782;9.190;2023-09-08T00:26:17;17.55;;;5.32;;
24631;SDS011;59977;48.782;9.190;2023-09-08T00:28:43;10.20;;;6.13;;
24631;SDS011;59977;48.782;9.190;2023-09-08T00:31:09;12.80;;;6.07;;
24631;SDS011;59977;48.782;9.190;2023-09-08T00:33:34;11.98;;;6.32;;
24631;SDS011;59977;48.782;9.190;2023-09-08T00:36:00;12.23;;;6.53;;
24631;SDS011;59977;48.782;9.190;2023-09-08T00:38:26;12.30;;;6.45;;
24631;SDS011;59977;48.782;9.190;2023-09-08T00:40:52;12.65;;;7.10;;
24631;SDS011;59977;48.782;9.190;2023-09-08T00:43:18;12.07;;;6.72;;
24631;SDS011;59977;48.782;9.190;2023-09-08T00:45:44;13.93;;;7.05;;
24631;SDS011;59977;48.782;9.190;2023-09-08T00:48:11;16.33;;;7.30;;
24631;SDS011;59977;48.782;9.190;2023-09-08T00:50:38;17.25;;;7.18;;
24631;SDS011;59977;48.782;9.190;2023-09-08T00:53:04;14.65;;;6.95;;
24631;SDS011;59977;48.782;9.190;2023-09-08T00:55:31;12.98;;;7.18;;
24631;SDS011;59977;48.782;9.190;2023-09-08T00:57:57;11.27;;;7.05;;
24631;SDS011;59977;48.782;9.190;2023-09-08T01:00:24;14.15;;;7.53;;
24631;SDS011;59977;48.782;9.190;2023-09-08T01:02:50;13.82;;;6.97;;
24631;SDS011;59977;48.782;9.190;2023-09-08T01:05:16;10.48;;;6.43;;
24631;SDS011;59977;48.782;9.190;2023-09-08T01:07:41;9.60;;;6.45;;
24631;SDS011;59977;48.782;9.190;2023-09-08T01:10:09;11.90;;;6.78;;
24631;SDS011;59977;48.782;9.190;2023-09-08T01:12:35;20.58;;;6.68;;
24631;SDS011;59977;48.782;9.190;2023-09-08T01:15:01;13.00;;;7.13;;
24631;SDS011;59977;48.782;9.190;2023-09-08T01:17:27;18.20;;;7.60;;
24631;SDS011;59977;48.782;9.190;2023-09-08T01:19:57;10.55;;;6.38;;
24631;SDS011;59977;48.782;9.190;2023-09-08T01:27:40;9.73;;;6.25;;
24631;SDS011;59977;48.782;9.190;2023-09-08T01:30:10;14.15;;;7.35;;
24631;SDS011;59977;48.782;9.190;2023-09-08T01:32:38;18.50;;;7.20;;
24631;SDS011;59977;48.782;9.190;2023-09-08T01:35:05;12.43;;;6.93;;
24631;SDS011;59977;48.782;9.190;2023-09-08T01:37:31;11.15;;;6.75;;
24631;SDS011;59977;48.782;9.190;2023-09-08T01:39:57;11.50;;;7.18;;
24631;SDS011;59977;48.782;9.190;2023-09-08T01:42:22;12.10;;;6.25;;
24631;SDS011;59977;48.782;9.190;2023-09-08T01:44:48;10.82;;;7.00;;
24631;SDS011;59977;48.782;9.190;2023-09-08T01:47:15;13.90;;;6.97;;
24631;SDS011;59977;48.782;9.190;2023-09-08T01:52:17;13.23;;;7.57;;
24631;SDS011;59977;48.782;9.190;2023-09-08T01:54:42;12.50;;;7.35;;
24631;SDS011;59977;48.782;9.190;2023-09-08T01:57:08;12.13;;;6.70;;
24631;SDS011;59977;48.782;9.190;2023-09-08T01:59:33;13.05;;;7.05;;
24631;SDS011;59977;48.782;9.190;2023-09-08T02:01:59;23.52;;;7.03;;
24631;SDS011;59977;48.782;9.190;2023-09-08T02:04:25;15.35;;;7.10;;
24631;SDS011;59977;48.782;9.190;2023-09-08T02:06:51;13.60;;;7.35;;
24631;SDS011;59977;48.782;9.190;2023-09-08T02:09:16;11.50;;;7.18;;
24631;SDS011;59977;48.782;9.190;2023-09-08T02:11:42;11.43;;;7.40;;
24631;SDS011;59977;48.782;9.190;2023-09-08T02:14:07;17.50;;;7.38;;
24631;SDS011;59977;48.782;9.190;2023-09-08T02:16:34;11.05;;;6.90;;
24631;SDS011;59977;48.782;9.190;2023-09-08T02:18:59;12.13;;;6.38;;
24631;SDS011;59977;48.782;9.190;2023-09-08T02:21:25;11.70;;;7.40;;
24631;SDS011;59977;48.782;9.190;2023-09-08T02:23:50;12.40;;;6.22;;
24631;SDS011;59977;48.782;9.190;2023-09-08T02:26:16;11.30;;;6.00;;
24631;SDS011;59977;48.782;9.190;2023-09-08T02:28:41;9.10;;;6.10;;
24631;SDS011;59977;48.782;9.190;2023-09-08T02:31:07;13.23;;;5.68;;
24631;SDS011;59977;48.782;9.190;2023-09-08T02:33:32;10.38;;;5.90;;
24631;SDS011;59977;48.782;9.190;2023-09-08T02:36:01;10.07;;;6.35;;
24631;SDS011;59977;48.782;9.190;2023-09-08T02:38:28;11.57;;;5.20;;
24631;SDS011;59977;48.782;9.190;2023-09-08T02:40:54;8.77;;;5.68;;
24631;SDS011;59977;48.782;9.190;2023-09-08T02:43:20;10.23;;;5.75;;
24631;SDS011;59977;48.782;9.190;2023-09-08T02:45:46;11.07;;;5.47;;
24631;SDS011;59977;48.782;9.190;2023-09-08T02:48:12;10.75;;;5.68;;
24631;SDS011;59977;48.782;9.190;2023-09-08T02:50:37;9.82;;;5.53;;
24631;SDS011;59977;48.782;9.190;2023-09-08T02:53:03;9.32;;;5.40;;
24631;SDS011;59977;48.782;9.190;2023-09-08T02:55:29;9.30;;;5.75;;
24631;SDS011;59977;48.782;9.190;2023-09-08T02:57:56;10.18;;;5.50;;
24631;SDS011;59977;48.782;9.190;2023-09-08T03:00:22;7.68;;;5.68;;
24631;SDS011;59977;48.782;9.190;2023-09-08T03:02:47;7.93;;;5.60;;
24631;SDS011;59977;48.782;9.190;2023-09-08T03:05:13;11.93;;;5.57;;
24631;SDS011;59977;48.782;9.190;2023-09-08T03:07:39;12.88;;;5.43;;
24631;SDS011;59977;48.782;9.190;2023-09-08T03:10:05;12.30;;;6.00;;
24631;SDS011;59977;48.782;9.190;2023-09-08T03:12:31;16.17;;;6.13;;
24631;SDS011;59977;48.782;9.190;2023-09-08T03:14:56;14.60;;;5.85;;
24631;SDS011;59977;48.782;9.190;2023-09-08T03:17:22;9.23;;;6.22;;
24631;SDS011;59977;48.782;9.190;2023-09-08T03:19:48;9.48;;;6.25;;
24631;SDS011;59977;48.782;9.190;2023-09-08T03:22:13;8.65;;;6.53;;
24631;SDS011;59977;48.782;9.190;2023-09-08T03:24:39;9.20;;;6.40;;
24631;SDS011;59977;48.782;9.190;2023-09-08T03:27:04;15.57;;;7.32;;
24631;SDS011;59977;48.782;9.190;2023-09-08T03:29:30;13.90;;;7.30;;
24631;SDS011;59977;48.782;9.190;2023-09-08T03:31:55;13.40;;;7.43;;
24631;SDS011;59977;48.782;9.190;2023-09-08T03:34:21;13.65;;;7.47;;
24631;SDS011;59977;48.782;9.190;2023-09-08T03:36:47;15.15;;;8.05;;
24631;SDS011;59977;48.782;9.190;2023-09-08T03:39:13;13.77;;;7.43;;
24631;SDS011;59977;48.782;9.190;2023-09-08T03:41:39;11.57;;;7.32;;
24631;SDS011;59977;48.782;9.190;2023-09-08T03:44:05;11.65;;;7.20;;
24631;SDS011;59977;48.782;9.190;2023-09-08T03:46:30;14.30;;;7.68;;
24631;SDS011;59977;48.782;9.190;2023-09-08T03:48:56;14.55;;;7.35;;
24631;SDS011;59977;48.782;9.190;2023-09-08T03:51:25;13.63;;;8.38;;
24631;SDS011;59977;48.782;9.190;2023-09-08T03:53:52;24.35;;;8.75;;
24631;SDS011;59977;48.782;9.190;2023-09-08T03:56:18;14.13;;;8.32;;
24631;SDS011;59977;48.782;9.190;2023-09-08T03:58:43;13.88;;;8.38;;
24631;SDS011;59977;48.782;9.190;2023-09-08T04:01:09;17.17;;;8.35;;
24631;SDS011;59977;48.782;9.190;2023-09-08T04:03:35;12.52;;;8.10;;
24631;SDS011;59977;48.782;9.190;2023-09-08T04:06:00;11.02;;;8.05;;
24631;SDS011;59977;48.782;9.190;2023-09-08T04:08:26;13.63;;;8.05;;
24631;SDS011;59977;48.782;9.190;2023-09-08T04:10:51;17.75;;;8.23;;
24631;SDS011;59977;48.782;9.190;2023-09-08T04:13:17;14.02;;;8.25;;
24631;SDS011;59977;48.782;9.190;2023-09-08T04:15:43;16.10;;;8.52;;
24631;SDS011;59977;48.782;9.190;2023-09-08T04:18:08;14.57;;;8.85;;
24631;SDS011;59977;48.782;9.190;2023-09-08T04:20:34;11.60;;;8.23;;
24631;SDS011;59977;48.782;9.190;2023-09-08T04:23:00;18.15;;;8.38;;
24631;SDS011;59977;48.782;9.190;2023-09-08T04:25:25;16.33;;;7.70;;
24631;SDS011;59977;48.782;9.190;2023-09-08T04:27:51;14.68;;;7.40;;
24631;SDS011;59977;48.782;9.190;2023-09-08T04:30:16;17.77;;;8.30;;
24631;SDS011;59977;48.782;9.190;2023-09-08T04:32:43;16.15;;;8.32;;
24631;SDS011;59977;48.782;9.190;2023-09-08T04:35:09;11.88;;;8.10;;
24631;SDS011;59977;48.782;9.190;2023-09-08T04:37:34;14.82;;;8.23;;
24631;SDS011;59977;48.782;9.190;2023-09-08T04:40:01;14.63;;;8.13;;
24631;SDS011;59977;48.782;9.190;2023-09-08T04:42:28;20.63;;;8.18;;
24631;SDS011;59977;48.782;9.190;2023-09-08T04:44:54;11.30;;;8.18;;
24631;SDS011;59977;48.782;9.190;2023-09-08T04:47:20;15.52;;;7.93;;
24631;SDS011;59977;48.782;9.190;2023-09-08T04:49:46;20.20;;;7.93;;
24631;SDS011;59977;48.782;9.190;2023-09-08T04:52:11;13.57;;;8.10;;
24631;SDS011;59977;48.782;9.190;2023-09-08T04:54:37;15.07;;;8.45;;
24631;SDS011;59977;48.782;9.190;2023-09-08T04:57:03;17.00;;;8.73;;
24631;SDS011;59977;48.782;9.190;2023-09-08T04:59:28;12.73;;;7.88;;
24631;SDS011;59977;48.782;9.190;2023-09-08T05:01:54;13.40;;;8.00;;
24631;SDS011;59977;48.782;9.190;2023-09-08T05:04:21;14.43;;;7.63;;
24631;SDS011;59977;48.782;9.190;2023-09-08T05:06:46;19.67;;;8.98;;
24631;SDS011;59977;48.782;9.190;2023-09-08T05:09:12;21.70;;;9.02;;
24631;SDS011;59977;48.782;9.190;2023-09-08T05:11:38;16.80;;;8.65;;
24631;SDS011;59977;48.782;9.190;2023-09-08T05:14:03;13.48;;;8.50;;
24631;SDS011;59977;48.782;9.190;2023-09-08T05:16:29;19.05;;;8.43;;
24631;SDS011;59977;48.782;9.190;2023-09-08T05:19:03;16.98;;;8.35;;
24631;SDS011;59977;48.782;9.190;2023-09-08T05:21:30;24.45;;;9.25;;
24631;SDS011;59977;48.782;9.190;2023-09-08T05:23:56;19.08;;;8.82;;
24631;SDS011;59977;48.782;9.190;2023-09-08T05:26:22;19.25;;;9.10;;
24631;SDS011;59977;48.782;9.190;2023-09-08T05:28:47;15.32;;;8.38;;
24631;SDS011;59977;48.782;9.190;2023-09-08T05:31:13;24.55;;;8.80;;
24631;SDS011;59977;48.782;9.190;2023-09-08T05:33:38;20.92;;;9.35;;
24631;SDS011;59977;48.782;9.190;2023-09-08T05:36:04;14.75;;;9.02;;
24631;SDS011;59977;48.782;9.190;2023-09-08T05:38:30;14.73;;;8.60;;
24631;SDS011;59977;48.782;9.190;2023-09-08T05:40:56;16.27;;;8.10;;
24631;SDS011;59977;48.782;9.190;2023-09-08T05:43:23;19.65;;;8.85;;
24631;SDS011;59977;48.782;9.190;2023-09-08T05:45:49;24.83;;;9.23;;
24631;SDS011;59977;48.782;9.190;2023-09-08T05:48:15;19.15;;;8.90;;
24631;SDS011;59977;48.782;9.190;2023-09-08T05:50:41;14.40;;;8.73;;
24631;SDS011;59977;48.782;9.190;2023-09-08T05:53:07;23.42;;;9.55;;
24631;SDS011;59977;48.782;9.190;2023-09-08T05:55:32;21.05;;;9.05;;
24631;SDS011;59977;48.782;9.190;2023-09-08T05:57:58;16.52;;;8.57;;
24631;SDS011;59977;48.782;9.190;2023-09-08T06:00:24;21.60;;;8.77;;
24631;SDS011;59977;48.782;9.190;2023-09-08T06:02:50;24.80;;;9.13;;
24631;SDS011;59977;48.782;9.190;2023-09-08T06:05:16;20.08;;;8.25;;
24631;SDS011;59977;48.782;9.190;2023-09-08T06:07:42;16.40;;;8.40;;
24631;SDS011;59977;48.782;9.190;2023-09-08T06:10:08;17.95;;;9.60;;
24631;SDS011;59977;48.782;9.190;2023-09-08T06:12:35;28.40;;;8.80;;
24631;SDS011;59977;48.782;9.190;2023-09-08T06:15:03;19.77;;;8.75;;
24631;SDS011;59977;48.782;9.190;2023-09-08T06:17:29;20.33;;;8.88;;
24631;SDS011;59977;48.782;9.190;2023-09-08T06:19:55;16.70;;;9.27;;
24631;SDS011;59977;48.782;9.190;2023-09-08T06:22:21;20.00;;;9.15;;
24631;SDS011;59977;48.782;9.190;2023-09-08T06:24:47;17.65;;;8.18;;
24631;SDS011;59977;48.782;9.190;2023-09-08T06:27:14;16.77;;;8.80;;
24631;SDS011;59977;48.782;9.190;2023-09-08T06:29:40;20.50;;;8.68;;
24631;SDS011;59977;48.782;9.190;2023-09-08T06:32:08;19.77;;;8.80;;
24631;SDS011;59977;48.782;9.190;2023-09-08T06:34:34;21.45;;;8.05;;
24631;SDS011;59977;48.782;9.190;2023-09-08T06:37:01;16.60;;;7.45;;
24631;SDS011;59977;48.782;9.190;2023-09-08T06:39:27;16.90;;;8.43;;
24631;SDS011;59977;48.782;9.190;2023-09-08T06:41:53;14.23;;;7.95;;
24631;SDS011;59977;48.782;9.190;2023-09-08T06:44:19;17.98;;;9.05;;
24631;SDS011;59977;48.782;9.190;2023-09-08T06:46:46;17.67;;;8.57;;
24631;SDS011;59977;48.782;9.190;2023-09-08T06:49:12;16.92;;;8.23;;
24631;SDS011;59977;48.782;9.190;2023-09-08T06:51:38;13.93;;;7.53;;
24631;SDS011;59977;48.782;9.190;2023-09-08T06:54:04;20.02;;;8.23;;
24631;SDS011;59977;48.782;9.190;2023-09-08T06:56:30;19.02;;;8.27;;
24631;SDS011;59977;48.782;9.190;2023-09-08T06:58:56;18.02;;;8.02;;
24631;SDS011;59977;48.782;9.190;2023-09-08T07:01:25;14.20;;;7.72;;
24631;SDS011;59977;48.782;9.190;2023-09-08T07:03:50;13.93;;;8.27;;
24631;SDS011;59977;48.782;9.190;2023-09-08T07:06:16;11.85;;;8.07;;
24631;SDS011;59977;48.782;9.190;2023-09-08T07:08:42;11.73;;;7.57;;
24631;SDS011;59977;48.782;9.190;2023-09-08T07:11:08;26.58;;;7.57;;
24631;SDS011;59977;48.782;9.190;2023-09-08T07:13:34;11.73;;;8.05;;
24631;SDS011;59977;48.782;9.190;2023-09-08T07:16:00;21.42;;;7.88;;
24631;SDS011;59977;48.782;9.190;2023-09-08T07:18:26;17.42;;;8.02;;
24631;SDS011;59977;48.782;9.190;2023-09-08T07:20:52;13.75;;;7.97;;
24631;SDS011;59977;48.782;9.190;2023-09-08T07:23:18;16.98;;;7.93;;
24631;SDS011;59977;48.782;9.190;2023-09-08T07:25:45;12.35;;;7.65;;
24631;SDS011;59977;48.782;9.190;2023-09-08T07:28:11;17.20;;;7.63;;
24631;SDS011;59977;48.782;9.190;2023-09-08T07:30:37;19.70;;;8.30;;
24631;SDS011;59977;48.782;9.190;2023-09-08T07:33:04;21.75;;;7.72;;
24631;SDS011;59977;48.782;9.190;2023-09-08T07:35:30;21.02;;;8.18;;
24631;SDS011;59977;48.782;9.190;2023-09-08T07:37:57;16.83;;;8.27;;
24631;SDS011;59977;48.782;9.190;2023-09-08T07:40:23;16.42;;;8.88;;
24631;SDS011;59977;48.782;9.190;2023-09-08T07:42:49;23.50;;;8.30;;
24631;SDS011;59977;48.782;9.190;2023-09-08T07:45:15;17.75;;;8.75;;
24631;SDS011;59977;48.782;9.190;2023-09-08T07:47:41;18.52;;;8.73;;
24631;SDS011;59977;48.782;9.190;2023-09-08T07:52:47;19.48;;;8.20;;
24631;SDS011;59977;48.782;9.190;2023-09-08T07:55:13;20.40;;;7.88;;
24631;SDS011;59977;48.782;9.190;2023-09-08T07:57:41;16.55;;;7.63;;
24631;SDS011;59977;48.782;9.190;2023-09-08T08:00:07;16.80;;;7.78;;
24631;SDS011;59977;48.782;9.190;2023-09-08T08:02:35;15.25;;;7.60;;
24631;SDS011;59977;48.782;9.190;2023-09-08T08:05:02;13.43;;;7.78;;
24631;SDS011;59977;48.782;9.190;2023-09-08T08:07:27;16.50;;;7.25;;
24631;SDS011;59977;48.782;9.190;2023-09-08T08:09:55;18.88;;;8.10;;
24631;SDS011;59977;48.782;9.190;2023-09-08T08:12:20;19.95;;;7.88;;
24631;SDS011;59977;48.782;9.190;2023-09-08T08:14:46;21.20;;;7.85;;
24631;SDS011;59977;48.782;9.190;2023-09-08T08:17:12;22.10;;;8.05;;
24631;SDS011;59977;48.782;9.190;2023-09-08T08:19:38;12.60;;;6.60;;
24631;SDS011;59977;48.782;9.190;2023-09-08T08:22:04;17.25;;;7.40;;
24631;SDS011;59977;48.782;9.190;2023-09-08T08:24:29;15.65;;;7.05;;
24631;SDS011;59977;48.782;9.190;2023-09-08T08:26:55;21.30;;;7.50;;
24631;SDS011;59977;48.782;9.190;2023-09-08T08:29:21;21.00;;;7.82;;
24631;SDS011;59977;48.782;9.190;2023-09-08T08:31:47;20.95;;;7.50;;
24631;SDS011;59977;48.782;9.190;2023-09-08T08:34:13;19.15;;;7.20;;
24631;SDS011;59977;48.782;9.190;2023-09-08T08:36:39;17.77;;;7.32;;
24631;SDS011;59977;48.782;9.190;2023-09-08T08:39:05;14.55;;;6.95;;
24631;SDS011;59977;48.782;9.190;2023-09-08T08:41:31;26.90;;;7.07;;
24631;SDS011;59977;48.782;9.190;2023-09-08T08:43:59;15.80;;;7.32;;
24631;SDS011;59977;48.782;9.190;2023-09-08T08:46:25;16.52;;;7.88;;
24631;SDS011;59977;48.782;9.190;2023-09-08T08:48:52;17.70;;;7.30;;
24631;SDS011;59977;48.782;9.190;2023-09-08T08:51:19;14.10;;;7.45;;
24631;SDS011;59977;48.782;9.190;2023-09-08T08:53:48;18.42;;;7.40;;
24631;SDS011;59977;48.782;9.190;2023-09-08T08:56:14;23.52;;;7.47;;
24631;SDS011;59977;48.782;9.190;2023-09-08T08:58:41;19.33;;;7.47;;
24631;SDS011;59977;48.782;9.190;2023-09-08T09:01:07;22.83;;;7.32;;
24631;SDS011;59977;48.782;9.190;2023-09-08T09:03:36;20.25;;;6.93;;
24631;SDS011;59977;48.782;9.190;2023-09-08T09:06:03;13.45;;;7.93;;
24631;SDS011;59977;48.782;9.190;2023-09-08T09:08:29;17.15;;;6.80;;
24631;SDS011;59977;48.782;9.190;2023-09-08T09:10:57;16.83;;;6.60;;
24631;SDS011;59977;48.782;9.190;2023-09-08T09:13:23;18.25;;;7.47;;
24631;SDS011;59977;48.782;9.190;2023-09-08T09:15:49;17.17;;;7.00;;
24631;SDS011;59977;48.782;9.190;2023-09-08T09:18:15;9.50;;;6.55;;
24631;SDS011;59977;48.782;9.190;2023-09-08T09:20:42;21.98;;;6.80;;
24631;SDS011;59977;48.782;9.190;2023-09-08T09:23:33;19.63;;;7.00;;
24631;SDS011;59977;48.782;9.190;2023-09-08T09:26:02;15.55;;;7.05;;
24631;SDS011;59977;48.782;9.190;2023-09-08T09:28:31;20.40;;;6.50;;
24631;SDS011;59977;48.782;9.190;2023-09-08T09:30:57;12.32;;;6.95;;
24631;SDS011;59977;48.782;9.190;2023-09-08T09:33:24;10.70;;;6.53;;
24631;SDS011;59977;48.782;9.190;2023-09-08T09:35:50;14.77;;;6.13;;
24631;SDS011;59977;48.782;9.190;2023-09-08T09:38:18;12.68;;;5.88;;
24631;SDS011;59977;48.782;9.190;2023-09-08T09:40:45;16.60;;;5.82;;
24631;SDS011;59977;48.782;9.190;2023-09-08T09:43:11;24.55;;;6.38;;
24631;SDS011;59977;48.782;9.190;2023-09-08T09:45:38;18.27;;;7.20;;
24631;SDS011;59977;48.782;9.190;2023-09-08T09:48:05;19.80;;;6.07;;
24631;SDS011;59977;48.782;9.190;2023-09-08T09:50:33;15.48;;;6.82;;
24631;SDS011;59977;48.782;9.190;2023-09-08T09:55:36;12.20;;;5.90;;
24631;SDS011;59977;48.782;9.190;2023-09-08T09:58:03;15.15;;;6.00;;
24631;SDS011;59977;48.782;9.190;2023-09-08T10:00:30;11.70;;;5.75;;
24631;SDS011;59977;48.782;9.190;2023-09-08T10:02:59;17.70;;;5.20;;
24631;SDS011;59977;48.782;9.190;2023-09-08T10:05:26;11.13;;;5.65;;
24631;SDS011;59977;48.782;9.190;2023-09-08T10:07:53;19.33;;;5.72;;
24631;SDS011;59977;48.782;9.190;2023-09-08T10:10:19;16.38;;;5.45;;
24631;SDS011;59977;48.782;9.190;2023-09-08T10:12:47;13.50;;;5.88;;
24631;SDS011;59977;48.782;9.190;2023-09-08T10:15:13;18.48;;;5.38;;
24631;SDS011;59977;48.782;9.190;2023-09-08T10:17:45;15.00;;;5.70;;
24631;SDS011;59977;48.782;9.190;2023-09-08T10:20:24;11.23;;;5.43;;
24631;SDS011;59977;48.782;9.190;2023-09-08T10:22:54;10.68;;;5.32;;
24631;SDS011;59977;48.782;9.190;2023-09-08T10:25:24;13.77;;;5.32;;
24631;SDS011;59977;48.782;9.190;2023-09-08T10:27:51;11.27;;;5.40;;
24631;SDS011;59977;48.782;9.190;2023-09-08T10:30:19;14.57;;;5.38;;
24631;SDS011;59977;48.782;9.190;2023-09-08T10:32:46;14.07;;;4.97;;
24631;SDS011;59977;48.782;9.190;2023-09-08T10:35:14;8.35;;;5.43;;
24631;SDS011;59977;48.782;9.190;2023-09-08T10:37:42;8.60;;;5.10;;
24631;SDS011;59977;48.782;9.190;2023-09-08T10:42:47;13.50;;;5.28;;
24631;SDS011;59977;48.782;9.190;2023-09-08T10:45:18;11.63;;;4.82;;
24631;SDS011;59977;48.782;9.190;2023-09-08T10:50:17;9.45;;;5.10;;
24631;SDS011;59977;48.782;9.190;2023-09-08T10:52:43;14.75;;;5.03;;
24631;SDS011;59977;48.782;9.190;2023-09-08T10:55:10;13.85;;;5.00;;
24631;SDS011;59977;48.782;9.190;2023-09-08T10:57:37;7.40;;;4.85;;
24631;SDS011;59977;48.782;9.190;2023-09-08T11:00:03;8.40;;;5.00;;
24631;SDS011;59977;48.782;9.190;2023-09-08T11:02:37;10.50;;;4.78;;
24631;SDS011;59977;48.782;9.190;2023-09-08T11:05:10;10.85;;;5.10;;
24631;SDS011;59977;48.782;9.190;2023-09-08T11:07:39;8.30;;;4.45;;
24631;SDS011;59977;48.782;9.190;2023-09-08T11:10:06;14.35;;;5.55;;
24631;SDS011;59977;48.782;9.190;2023-09-08T11:12:32;8.93;;;4.90;;
24631;SDS011;59977;48.782;9.190;2023-09-08T11:14:59;16.08;;;5.22;;
24631;SDS011;59977;48.782;9.190;2023-09-08T11:17:30;8.68;;;4.68;;
24631;SDS011;59977;48.782;9.190;2023-09-08T11:19:57;10.13;;;5.10;;
24631;SDS011;59977;48.782;9.190;2023-09-08T11:22:23;11.05;;;5.38;;
24631;SDS011;59977;48.782;9.190;2023-09-08T11:24:51;14.40;;;5.15;;
24631;SDS011;59977;48.782;9.190;2023-09-08T11:27:17;9.02;;;5.32;;
24631;SDS011;59977;48.782;9.190;2023-09-08T11:29:43;9.40;;;5.50;;
24631;SDS011;59977;48.782;9.190;2023-09-08T11:32:09;13.27;;;5.22;;
24631;SDS011;59977;48.782;9.190;2023-09-08T11:34:35;10.30;;;5.28;;
24631;SDS011;59977;48.782;9.190;2023-09-08T11:37:11;13.80;;;5.65;;
24631;SDS011;59977;48.782;9.190;2023-09-08T11:39:47;16.63;;;5.07;;
24631;SDS011;59977;48.782;9.190;2023-09-08T11:42:13;13.43;;;5.20;;
24631;SDS011;59977;48.782;9.190;2023-09-08T11:44:41;13.20;;;4.90;;
24631;SDS011;59977;48.782;9.190;2023-09-08T11:47:08;10.20;;;5.25;;
24631;SDS011;59977;48.782;9.190;2023-09-08T11:49:38;10.77;;;5.53;;
24631;SDS011;59977;48.782;9.190;2023-09-08T11:52:06;13.48;;;5.15;;
24631;SDS011;59977;48.782;9.190;2023-09-08T11:54:32;12.30;;;5.93;;
24631;SDS011;59977;48.782;9.190;2023-09-08T11:57:00;11.38;;;5.00;;
24631;SDS011;59977;48.782;9.190;2023-09-08T11:59:30;10.75;;;5.32;;
24631;SDS011;59977;48.782;9.190;2023-09-08T12:01:57;7.30;;;4.93;;
24631;SDS011;59977;48.782;9.190;2023-09-08T12:04:23;10.52;;;5.43;;
24631;SDS011;59977;48.782;9.190;2023-09-08T12:06:49;11.13;;;5.60;;
24631;SDS011;59977;48.782;9.190;2023-09-08T12:09:16;9.38;;;5.30;;
24631;SDS011;59977;48.782;9.190;2023-09-08T12:11:42;8.82;;;5.40;;
24631;SDS011;59977;48.782;9.190;2023-09-08T12:14:10;14.88;;;5.35;;
24631;SDS011;59977;48.782;9.190;2023-09-08T12:16:37;12.77;;;5.68;;
24631;SDS011;59977;48.782;9.190;2023-09-08T12:19:03;12.23;;;5.03;;
24631;SDS011;59977;48.782;9.190;2023-09-08T12:21:29;10.75;;;5.22;;
24631;SDS011;59977;48.782;9.190;2023-09-08T12:23:57;24.63;;;5.78;;
24631;SDS011;59977;48.782;9.190;2023-09-08T12:26:26;9.13;;;5.47;;
24631;SDS011;59977;48.782;9.190;2023-09-08T12:28:55;9.48;;;4.97;;
24631;SDS011;59977;48.782;9.190;2023-09-08T12:31:20;12.38;;;5.10;;
24631;SDS011;59977;48.782;9.190;2023-09-08T12:33:46;9.55;;;5.00;;
24631;SDS011;59977;48.782;9.190;2023-09-08T12:36:13;10.27;;;5.20;;
24631;SDS011;59977;48.782;9.190;2023-09-08T12:38:39;16.02;;;5.13;;
24631;SDS011;59977;48.782;9.190;2023-09-08T12:41:05;10.45;;;5.20;;
24631;SDS011;59977;48.782;9.190;2023-09-08T12:43:31;12.50;;;4.90;;
24631;SDS011;59977;48.782;9.190;2023-09-08T12:45:58;10.68;;;4.95;;
24631;SDS011;59977;48.782;9.190;2023-09-08T12:48:24;11.98;;;5.03;;
24631;SDS011;59977;48.782;9.190;2023-09-08T12:50:50;13.85;;;4.80;;
24631;SDS011;59977;48.782;9.190;2023-09-08T12:53:16;9.80;;;4.55;;
24631;SDS011;59977;48.782;9.190;2023-09-08T12:55:43;6.10;;;4.78;;
24631;SDS011;59977;48.782;9.190;2023-09-08T12:58:09;9.48;;;4.75;;
24631;SDS011;59977;48.782;9.190;2023-09-08T13:00:34;8.82;;;4.63;;
24631;SDS011;59977;48.782;9.190;2023-09-08T13:03:00;16.05;;;5.15;;
24631;SDS011;59977;48.782;9.190;2023-09-08T13:05:27;6.47;;;4.60;;
24631;SDS011;59977;48.782;9.190;2023-09-08T13:07:53;5.95;;;4.53;;
24631;SDS011;59977;48.782;9.190;2023-09-08T13:10:18;7.80;;;4.68;;
24631;SDS011;59977;48.782;9.190;2023-09-08T13:12:45;7.45;;;4.60;;
24631;SDS011;59977;48.782;9.190;2023-09-08T13:15:11;9.02;;;4.55;;
24631;SDS011;59977;48.782;9.190;2023-09-08T13:17:37;6.57;;;4.47;;
24631;SDS011;59977;48.782;9.190;2023-09-08T13:20:03;11.38;;;4.55;;
24631;SDS011;59977;48.782;9.190;2023-09-08T13:22:29;7.30;;;4.40;;
24631;SDS011;59977;48.782;9.190;2023-09-08T13:24:55;12.30;;;4.70;;
24631;SDS011;59977;48.782;9.190;2023-09-08T13:27:21;9.15;;;4.50;;
24631;SDS011;59977;48.782;9.190;2023-09-08T13:29:46;11.93;;;4.00;;
24631;SDS011;59977;48.782;9.190;2023-09-08T13:32:13;8.20;;;4.00;;
24631;SDS011;59977;48.782;9.190;2023-09-08T13:34:39;9.65;;;4.40;;
24631;SDS011;59977;48.782;9.190;2023-09-08T13:37:05;8.80;;;4.63;;
24631;SDS011;59977;48.782;9.190;2023-09-08T13:39:30;14.20;;;3.90;;
24631;SDS011;59977;48.782;9.190;2023-09-08T13:41:58;8.95;;;4.40;;
24631;SDS011;59977;48.782;9.190;2023-09-08T13:44:25;9.55;;;4.30;;
24631;SDS011;59977;48.782;9.190;2023-09-08T13:46:51;8.55;;;4.20;;
24631;SDS011;59977;48.782;9.190;2023-09-08T13:49:18;12.18;;;4.63;;
24631;SDS011;59977;48.782;9.190;2023-09-08T13:51:44;7.65;;;4.28;;
24631;SDS011;59977;48.782;9.190;2023-09-08T13:54:10;5.82;;;3.85;;
24631;SDS011;59977;48.782;9.190;2023-09-08T13:56:41;10.80;;;4.40;;
24631;SDS011;59977;48.782;9.190;2023-09-08T13:59:07;9.00;;;3.93;;
24631;SDS011;59977;48.782;9.190;2023-09-08T14:01:34;5.43;;;4.25;;
24631;SDS011;59977;48.782;9.190;2023-09-08T14:04:00;5.65;;;4.03;;
24631;SDS011;59977;48.782;9.190;2023-09-08T14:06:26;8.30;;;4.00;;
24631;SDS011;59977;48.782;9.190;2023-09-08T14:08:53;4.50;;;3.80;;
24631;SDS011;59977;48.782;9.190;2023-09-08T14:11:18;7.15;;;4.10;;
24631;SDS011;59977;48.782;9.190;2023-09-08T14:13:44;6.13;;;4.10;;
24631;SDS011;59977;48.782;9.190;2023-09-08T14:16:13;8.52;;;3.70;;
24631;SDS011;59977;48.782;9.190;2023-09-08T14:18:39;7.32;;;3.67;;
24631;SDS011;59977;48.782;9.190;2023-09-08T14:21:05;5.07;;;3.90;;
24631;SDS011;59977;48.782;9.190;2023-09-08T14:23:32;6.68;;;3.65;;
24631;SDS011;59977;48.782;9.190;2023-09-08T14:25:59;9.38;;;3.88;;
24631;SDS011;59977;48.782;9.190;2023-09-08T14:28:25;5.00;;;3.53;;
24631;SDS011;59977;48.782;9.190;2023-09-08T14:30:52;7.93;;;4.13;;
24631;SDS011;59977;48.782;9.190;2023-09-08T14:33:18;5.78;;;3.80;;
24631;SDS011;59977;48.782;9.190;2023-09-08T14:35:43;9.07;;;4.13;;
24631;SDS011;59977;48.782;9.190;2023-09-08T14:38:11;7.65;;;3.85;;
24631;SDS011;59977;48.782;9.190;2023-09-08T14:40:37;9.90;;;3.85;;
24631;SDS011;59977;48.782;9.190;2023-09-08T14:43:03;5.63;;;3.97;;
24631;SDS011;59977;48.782;9.190;2023-09-08T14:45:28;7.38;;;4.10;;
24631;SDS011;59977;48.782;9.190;2023-09-08T14:47:54;9.88;;;3.88;;
24631;SDS011;59977;48.782;9.190;2023-09-08T14:50:20;8.38;;;4.10;;
24631;SDS011;59977;48.782;9.190;2023-09-08T14:52:46;10.77;;;3.85;;